Hlavní strana
METAR-TAF:

METAR-TAF

Letiště :

El Oued, Alžírsko

zeměpisná šířka: 33-30-47N, zeměpisná délka: 006-46-57E, výška: 62 m

Aktuální stav počasí

Zpráva byla vytvořena před 1 hodinou a 4 minutami, v 04:00 UTC
Východní vítr 11 kt
Teplota 16°C
Vlhkost vzduchu 59%
Tlak 1021 hPa
Viditelnost 10 km a více
Žádná oblačnost pod 1500 m, nevyskytují se cumulonimby.

METAR: DAUO 070400Z 10011KT CAVOK 16/08 Q1021

Čas: 06:04 (05:04 UTC)

Předpověď počasí

Zpráva byla vytvořena před 3 hodinami a 4 minutami, v 02:00 UTC
Předpověď platná od 07 v 03 UTC do 07 v 12 UTC
Východní vítr 10 kt
Viditelnost: 8000 m
Pravděpodobnost 30% :
Dočasný
od 07 v 03 UTC do 07 v 06 UTC
Východní vítr 20 kt
Viditelnost: 4000 m
nízko zvířený písek

TAF: DAUO 070200Z 0703/0712 08010KT 8000 NSC PROB30 TEMPO 0703/0706 08020KT 4000 DRSA

Stav a předpovědi počasí z více než 4 000 letišť (zprávy METAR a TAF).

Červené a žluté tečky na mapě představují dostupné meteorologické stanice.

Když kurzor umístíte na tečku, zobrazí se název stanice.

Pak kliknutím zobrazíte stav a předpověď počasí.

Chcete-li změnit mapu, kliknutím na zelené tlačítko se znaménkem +mapu přiblížíte, kliknutím na zelené tlačítko se znaménkem – mapu oddálíte a kliknutím na zelené šipky přejdete na sousední mapy.


METAR-TAF: